Time,TemperatureF,DewpointF,PressureIn,WindDirection,WindDirectionDegrees,WindSpeedMPH,WindSpeedGustMPH,Humidity,HourlyPrecipIn,Conditions,Clouds,dailyrainin,SoftwareType,DateUTC
2013-04-07 00:00:00,37.8,21.8,30.28,SE,144,0.0,0.0,52,0.00,CLR,,0.00,WeatherDisplay:10.37,2013-04-07 04:00:00,
2013-04-07 00:01:00,37.8,21.8,30.28,SE,144,0.0,0.0,52,0.00,CLR,,0.00,WeatherDisplay:10.37,2013-04-07 04:01:00,
2013-04-07 00:06:00,37.1,20.7,30.28,ENE,61,2.3,2.3,51,0.00,CLR,,0.00,WeatherDisplay:10.37,2013-04-07 04:06:00,
2013-04-07 00:08:00,36.9,20.5,30.28,ENE,61,0.0,0.0,51,0.00,CLR,,0.00,WeatherDisplay:10.37,2013-04-07 04:08:00,
2013-04-07 00:14:00,36.7,20.3,30.28,ENE,61,0.0,0.0,51,0.00,CLR,,0.00,WeatherDisplay:10.37,2013-04-07 04:14:00,
2013-04-07 00:19:00,36.6,20.2,30.28,ENE,61,0.0,0.0,51,0.00,CLR,,0.00,WeatherDisplay:10.37,2013-04-07 04:19:00,
2013-04-07 00:24:00,36.4,20.5,30.28,East,92,0.0,0.0,52,0.00,CLR,,0.00,WeatherDisplay:10.37,2013-04-07 04:24:00,
2013-04-07 00:29:00,36.3,20.8,30.28,East,92,0.0,0.0,53,0.00,CLR,,0.00,WeatherDisplay:10.37,2013-04-07 04:29:00,
2013-04-07 00:34:00,36.2,21.2,30.28,East,92,0.0,0.0,54,0.00,CLR,,0.00,WeatherDisplay:10.37,2013-04-07 04:34:00,
2013-04-07 00:39:00,36.4,21.8,30.29,East,92,0.0,0.0,55,0.00,CLR,,0.00,WeatherDisplay:10.37,2013-04-07 04:39:00,
2013-04-07 00:44:00,36.1,21.9,30.29,SSE,150,1.2,0.0,56,0.00,CLR,,0.00,WeatherDisplay:10.37,2013-04-07 04:44:00,
2013-04-07 00:49:00,36.1,22.4,30.28,SW,216,0.0,0.8,57,0.00,CLR,,0.00,WeatherDisplay:10.37,2013-04-07 04:49:00,
2013-04-07 00:54:00,36.0,22.7,30.28,SW,224,0.0,0.0,58,0.00,CLR,,0.00,WeatherDisplay:10.37,2013-04-07 04:54:00,
2013-04-07 00:59:00,35.8,22.5,30.28,West,261,0.0,0.0,58,0.00,CLR,,0.00,WeatherDisplay:10.37,2013-04-07 04:59:00,
2013-04-07 01:04:00,35.7,22.8,30.28,West,261,0.0,0.0,59,0.00,CLR,,0.00,WeatherDisplay:10.37,2013-04-07 05:04:00,
2013-04-07 01:09:00,35.8,22.9,30.28,West,261,0.0,0.0,59,0.00,CLR,,0.00,WeatherDisplay:10.37,2013-04-07 05:09:00,
2013-04-07 01:14:00,35.4,22.5,30.28,West,261,0.0,0.0,59,0.00,CLR,,0.00,WeatherDisplay:10.37,2013-04-07 05:14:00,
2013-04-07 01:19:00,35.5,23.4,30.28,ESE,104,3.5,3.5,61,0.00,CLR,,0.00,WeatherDisplay:10.37,2013-04-07 05:19:00,
2013-04-07 01:25:00,35.5,23.8,30.28,ESE,109,0.0,0.0,62,0.00,CLR,,0.00,WeatherDisplay:10.37,2013-04-07 05:25:00,
2013-04-07 01:30:00,35.6,24.3,30.28,ESE,109,0.0,0.0,63,0.00,CLR,,0.00,WeatherDisplay:10.37,2013-04-07 05:30:00,
2013-04-07 01:35:00,35.5,24.6,30.28,SSW,196,2.3,2.3,64,0.00,CLR,,0.00,WeatherDisplay:10.37,2013-04-07 05:35:00,
2013-04-07 01:41:00,35.5,24.9,30.27,South,178,0.0,0.0,65,0.00,CLR,,0.00,WeatherDisplay:10.37,2013-04-07 05:41:00,
2013-04-07 01:46:00,35.4,24.8,30.28,South,178,0.0,0.0,65,0.00,CLR,,0.00,WeatherDisplay:10.37,2013-04-07 05:46:00,
2013-04-07 01:52:00,35.5,25.3,30.28,South,178,0.0,0.0,66,0.00,CLR,,0.00,WeatherDisplay:10.37,2013-04-07 05:52:00,
2013-04-07 01:57:00,35.4,25.2,30.27,South,178,0.0,0.0,66,0.00,CLR,,0.00,WeatherDisplay:10.37,2013-04-07 05:57:00,
2013-04-07 02:02:00,35.2,25.4,30.27,South,178,0.0,0.0,67,0.00,CLR,,0.00,WeatherDisplay:10.37,2013-04-07 06:02:00,
2013-04-07 02:08:00,35.1,25.6,30.27,South,178,0.0,0.0,68,0.00,CLR,,0.00,WeatherDisplay:10.37,2013-04-07 06:08:00,
2013-04-07 02:13:00,35.0,25.5,30.26,South,178,0.0,0.0,68,0.00,CLR,,0.00,WeatherDisplay:10.37,2013-04-07 06:13:00,
2013-04-07 02:18:00,34.4,24.6,30.26,South,178,0.0,0.0,67,0.00,CLR,,0.00,WeatherDisplay:10.37,2013-04-07 06:18:00,
2013-04-07 02:23:00,34.1,24.0,30.26,South,178,0.0,0.0,66,0.00,CLR,,0.00,WeatherDisplay:10.37,2013-04-07 06:23:00,
2013-04-07 02:28:00,34.0,24.6,30.26,South,178,0.0,0.0,68,0.00,CLR,,0.00,WeatherDisplay:10.37,2013-04-07 06:28:00,
2013-04-07 02:33:00,33.9,24.8,30.26,South,178,0.0,0.0,69,0.00,CLR,,0.00,WeatherDisplay:10.37,2013-04-07 06:33:00,
2013-04-07 02:38:00,33.9,25.2,30.26,South,178,0.0,0.0,70,0.00,CLR,,0.00,WeatherDisplay:10.37,2013-04-07 06:38:00,
2013-04-07 02:43:00,34.0,25.6,30.26,South,178,0.0,0.0,71,0.00,CLR,,0.00,WeatherDisplay:10.37,2013-04-07 06:43:00,
2013-04-07 02:48:00,34.0,26.3,30.26,South,178,0.0,0.0,73,0.00,CLR,,0.00,WeatherDisplay:10.37,2013-04-07 06:48:00,
2013-04-07 02:53:00,33.7,26.0,30.26,South,178,0.0,0.0,73,0.00,CLR,,0.00,WeatherDisplay:10.37,2013-04-07 06:53:00,
2013-04-07 02:59:00,34.2,26.8,30.26,South,178,0.0,0.0,74,0.00,CLR,,0.00,WeatherDisplay:10.37,2013-04-07 06:59:00,
2013-04-07 03:04:00,34.2,27.1,30.26,South,176,2.3,2.3,75,0.00,CLR,,0.00,WeatherDisplay:10.37,2013-04-07 07:04:00,
2013-04-07 03:09:00,34.4,27.3,30.26,SW,224,1.2,0.0,75,0.00,CLR,,0.00,WeatherDisplay:10.37,2013-04-07 07:09:00,
2013-04-07 03:14:00,34.8,27.7,30.26,SW,234,0.0,0.0,75,0.00,CLR,,0.00,WeatherDisplay:10.37,2013-04-07 07:14:00,
2013-04-07 03:19:00,35.1,28.3,30.26,SW,234,0.0,0.0,76,0.00,CLR,,0.00,WeatherDisplay:10.37,2013-04-07 07:19:00,
2013-04-07 03:24:00,35.3,28.5,30.26,SSE,154,0.0,0.0,76,0.00,CLR,,0.00,WeatherDisplay:10.37,2013-04-07 07:24:00,
2013-04-07 03:29:00,35.2,28.4,30.25,SSE,154,0.0,0.0,76,0.00,CLR,,0.00,WeatherDisplay:10.37,2013-04-07 07:29:00,
2013-04-07 03:34:00,35.4,28.6,30.26,SSE,154,0.0,0.0,76,0.00,CLR,,0.00,WeatherDisplay:10.37,2013-04-07 07:34:00,
2013-04-07 03:39:00,35.6,28.8,30.26,SSE,154,0.0,0.0,76,0.00,CLR,,0.00,WeatherDisplay:10.37,2013-04-07 07:39:00,
2013-04-07 03:44:00,35.7,28.9,30.26,SSW,213,2.3,2.3,76,0.00,CLR,,0.00,WeatherDisplay:10.37,2013-04-07 07:44:00,
2013-04-07 03:49:00,35.5,28.7,30.26,South,178,0.0,0.0,76,0.00,CLR,,0.00,WeatherDisplay:10.37,2013-04-07 07:49:00,
2013-04-07 03:55:00,35.6,29.1,30.26,SSW,212,4.6,4.6,77,0.00,CLR,,0.00,WeatherDisplay:10.37,2013-04-07 07:55:00,
2013-04-07 04:00:00,35.8,29.6,30.26,SSW,213,7.9,7.9,78,0.00,CLR,,0.00,WeatherDisplay:10.37,2013-04-07 08:00:00,
2013-04-07 04:06:00,36.0,29.8,30.26,SW,220,8.1,8.1,78,0.00,CLR,,0.00,WeatherDisplay:10.37,2013-04-07 08:06:00,
2013-04-07 04:12:00,35.9,29.4,30.26,South,169,0.0,0.0,77,0.00,CLR,,0.00,WeatherDisplay:10.37,2013-04-07 08:12:00,
2013-04-07 04:17:00,35.1,27.7,30.26,SSE,157,3.5,3.5,74,0.00,CLR,,0.00,WeatherDisplay:10.37,2013-04-07 08:17:00,
2013-04-07 04:22:00,34.5,26.8,30.26,WSW,253,10.4,10.4,73,0.00,CLR,,0.00,WeatherDisplay:10.37,2013-04-07 08:22:00,
2013-04-07 04:27:00,34.3,27.6,30.26,SSW,203,0.0,0.0,76,0.00,CLR,,0.00,WeatherDisplay:10.37,2013-04-07 08:27:00,
2013-04-07 04:32:00,34.4,28.9,30.26,ESE,104,5.8,5.8,80,0.00,CLR,,0.00,WeatherDisplay:10.37,2013-04-07 08:32:00,
2013-04-07 04:37:00,34.8,29.9,30.26,SSE,165,5.8,5.8,82,0.00,CLR,,0.00,WeatherDisplay:10.37,2013-04-07 08:37:00,
2013-04-07 04:42:00,35.4,30.2,30.26,SW,224,0.0,0.0,81,0.00,CLR,,0.00,WeatherDisplay:10.37,2013-04-07 08:42:00,
2013-04-07 04:47:00,36.0,31.1,30.25,SSW,195,10.4,10.4,82,0.00,CLR,,0.00,WeatherDisplay:10.37,2013-04-07 08:47:00,
2013-04-07 04:52:00,36.2,31.0,30.25,SW,234,9.2,9.2,81,0.00,CLR,,0.00,WeatherDisplay:10.37,2013-04-07 08:52:00,
2013-04-07 04:57:00,36.4,31.2,30.25,WSW,247,9.2,9.2,81,0.00,CLR,,0.00,WeatherDisplay:10.37,2013-04-07 08:57:00,
2013-04-07 05:02:00,36.6,31.1,30.25,WSW,243,6.9,7.4,80,0.00,CLR,,0.00,WeatherDisplay:10.37,2013-04-07 09:02:00,
2013-04-07 05:07:00,36.5,31.0,30.25,West,263,8.1,8.1,80,0.00,CLR,,0.00,WeatherDisplay:10.37,2013-04-07 09:07:00,
2013-04-07 05:12:00,36.6,31.1,30.25,West,264,9.2,9.2,80,0.00,CLR,,0.00,WeatherDisplay:10.37,2013-04-07 09:12:00,
2013-04-07 05:17:00,36.6,31.1,30.25,SSW,206,6.9,6.9,80,0.00,CLR,,0.00,WeatherDisplay:10.37,2013-04-07 09:17:00,
2013-04-07 05:22:00,36.8,30.9,30.26,SW,222,4.6,4.6,79,0.00,CLR,,0.00,WeatherDisplay:10.37,2013-04-07 09:22:00,
2013-04-07 05:27:00,36.6,31.1,30.26,West,261,8.1,8.1,80,0.00,CLR,,0.00,WeatherDisplay:10.37,2013-04-07 09:27:00,
2013-04-07 05:34:00,36.8,31.2,30.25,South,186,8.1,8.1,80,0.00,CLR,,0.00,WeatherDisplay:10.37,2013-04-07 09:34:00,
2013-04-07 05:39:00,37.1,31.2,30.26,South,188,6.9,6.9,79,0.00,CLR,,0.00,WeatherDisplay:10.37,2013-04-07 09:39:00,
2013-04-07 05:44:00,37.0,31.1,30.26,SSW,202,6.9,6.9,79,0.00,CLR,,0.00,WeatherDisplay:10.37,2013-04-07 09:44:00,
2013-04-07 05:49:00,37.3,31.1,30.26,WSW,254,12.7,12.7,78,0.00,CLR,,0.00,WeatherDisplay:10.37,2013-04-07 09:49:00,
2013-04-07 05:54:00,37.4,31.2,30.26,WSW,240,11.5,11.5,78,0.00,CLR,,0.00,WeatherDisplay:10.37,2013-04-07 09:54:00,
2013-04-07 06:00:00,37.4,31.2,30.26,SSW,212,13.8,13.8,78,0.00,CLR,,0.00,WeatherDisplay:10.37,2013-04-07 10:00:00,
2013-04-07 06:05:00,37.7,31.5,30.27,WSW,254,10.4,10.4,78,0.00,CLR,,0.00,WeatherDisplay:10.37,2013-04-07 10:05:00,
2013-04-07 06:10:00,37.5,31.3,30.27,West,268,8.1,8.1,78,0.00,CLR,,0.00,WeatherDisplay:10.37,2013-04-07 10:10:00,
2013-04-07 06:16:00,37.6,31.4,30.27,South,185,11.5,11.5,78,0.00,CLR,,0.00,WeatherDisplay:10.37,2013-04-07 10:16:00,
2013-04-07 06:21:00,37.7,31.5,30.27,SW,226,9.2,9.2,78,0.00,BKN,,0.00,WeatherDisplay:10.37,2013-04-07 10:21:00,
2013-04-07 06:28:00,37.8,31.6,30.27,West,271,11.5,11.5,78,0.00,BKN,,0.00,WeatherDisplay:10.37,2013-04-07 10:28:00,
2013-04-07 06:33:00,37.9,31.7,30.27,SW,232,6.9,6.9,78,0.00,BKN,,0.00,WeatherDisplay:10.37,2013-04-07 10:33:00,
2013-04-07 06:38:00,38.2,32.0,30.27,WSW,254,6.9,6.9,78,0.00,BKN,,0.00,WeatherDisplay:10.37,2013-04-07 10:38:00,
2013-04-07 06:44:00,38.0,31.8,30.27,WNW,285,11.5,11.5,78,0.00,BKN,,0.00,WeatherDisplay:10.37,2013-04-07 10:44:00,
2013-04-07 06:50:00,38.1,31.6,30.27,SW,232,5.8,5.8,77,0.00,BKN,,0.00,WeatherDisplay:10.37,2013-04-07 10:50:00,
2013-04-07 06:55:00,38.4,31.9,30.27,WSW,250,8.1,8.1,77,0.00,BKN,,0.00,WeatherDisplay:10.37,2013-04-07 10:55:00,
2013-04-07 07:00:00,38.5,31.6,30.27,SSE,151,5.8,5.8,76,0.00,BKN,,0.00,WeatherDisplay:10.37,2013-04-07 11:00:00,
2013-04-07 07:05:00,38.5,31.6,30.27,West,260,9.2,9.2,76,0.00,BKN,,0.00,WeatherDisplay:10.37,2013-04-07 11:05:00,
2013-04-07 07:10:00,38.6,31.4,30.27,South,184,8.1,8.1,75,0.00,BKN,,0.00,WeatherDisplay:10.37,2013-04-07 11:10:00,
2013-04-07 07:15:00,38.7,31.5,30.27,SW,215,8.1,8.1,75,0.00,BKN,,0.00,WeatherDisplay:10.37,2013-04-07 11:15:00,
2013-04-07 07:20:00,38.9,31.4,30.27,West,264,6.9,6.9,74,0.00,BKN,,0.00,WeatherDisplay:10.37,2013-04-07 11:20:00,
2013-04-07 07:25:00,39.0,31.1,30.26,WSW,256,5.8,5.8,73,0.00,BKN,,0.00,WeatherDisplay:10.37,2013-04-07 11:25:00,
2013-04-07 07:30:00,39.2,31.6,30.26,West,264,3.5,3.5,74,0.00,BKN,,0.00,WeatherDisplay:10.37,2013-04-07 11:30:00,
2013-04-07 07:35:00,39.2,31.3,30.26,SSW,192,4.6,4.6,73,0.00,BKN,,0.00,WeatherDisplay:10.37,2013-04-07 11:35:00,
2013-04-07 07:40:00,39.5,31.3,30.26,WSW,243,8.1,8.1,72,0.00,BKN,,0.00,WeatherDisplay:10.37,2013-04-07 11:40:00,
2013-04-07 07:45:00,39.6,31.4,30.26,South,179,2.3,0.0,72,0.00,BKN,,0.00,WeatherDisplay:10.37,2013-04-07 11:45:00,
2013-04-07 07:50:00,40.0,31.4,30.26,West,260,4.6,4.6,71,0.00,BKN,,0.00,WeatherDisplay:10.37,2013-04-07 11:50:00,
2013-04-07 07:55:00,40.2,31.6,30.26,WSW,248,6.0,6.0,71,0.00,BKN,,0.00,WeatherDisplay:10.37,2013-04-07 11:55:00,
2013-04-07 08:00:00,40.4,31.4,30.25,West,272,4.6,4.6,70,0.00,BKN,,0.00,WeatherDisplay:10.37,2013-04-07 12:00:00,
2013-04-07 08:05:00,40.5,31.2,30.25,SSW,192,9.2,9.2,69,0.00,OVC,,0.00,WeatherDisplay:10.37,2013-04-07 12:05:00,
2013-04-07 08:10:00,40.6,31.3,30.25,SW,220,4.6,4.6,69,0.00,OVC,,0.00,WeatherDisplay:10.37,2013-04-07 12:10:00,
2013-04-07 08:15:00,40.7,31.0,30.25,WSW,237,5.8,5.8,68,0.00,OVC,,0.00,WeatherDisplay:10.37,2013-04-07 12:15:00,
2013-04-07 08:20:00,40.9,31.2,30.25,SW,215,10.4,10.4,68,0.00,OVC,,0.00,WeatherDisplay:10.37,2013-04-07 12:20:00,
2013-04-07 08:25:00,41.0,30.9,30.25,WSW,244,6.9,6.9,67,0.00,OVC,,0.00,WeatherDisplay:10.37,2013-04-07 12:25:00,
2013-04-07 08:30:00,41.4,30.5,30.24,WNW,285,3.0,3.0,65,0.00,OVC,,0.00,WeatherDisplay:10.37,2013-04-07 12:30:00,
2013-04-07 08:35:00,41.5,29.5,30.23,South,178,8.1,8.1,62,0.00,OVC,,0.00,WeatherDisplay:10.37,2013-04-07 12:35:00,
2013-04-07 08:40:00,41.9,29.9,30.23,WNW,292,9.2,9.2,62,0.00,OVC,,0.00,WeatherDisplay:10.37,2013-04-07 12:40:00,
2013-04-07 08:45:00,42.4,28.7,30.23,SW,230,8.1,8.1,58,0.00,OVC,,0.00,WeatherDisplay:10.37,2013-04-07 12:45:00,
2013-04-07 08:50:00,42.7,28.6,30.23,WSW,251,8.1,8.1,57,0.00,OVC,,0.00,WeatherDisplay:10.37,2013-04-07 12:50:00,
2013-04-07 08:55:00,42.8,27.8,30.23,SSE,168,11.4,11.4,55,0.00,OVC,,0.00,WeatherDisplay:10.37,2013-04-07 12:55:00,
2013-04-07 09:00:00,43.0,27.5,30.23,South,175,5.8,5.8,54,0.00,OVC,,0.00,WeatherDisplay:10.37,2013-04-07 13:00:00,
2013-04-07 09:06:00,43.0,27.1,30.23,South,185,10.4,10.4,53,0.00,OVC,,0.00,WeatherDisplay:10.37,2013-04-07 13:06:00,
2013-04-07 09:11:00,43.4,27.0,30.22,West,267,9.2,9.2,52,0.00,OVC,,0.00,WeatherDisplay:10.37,2013-04-07 13:11:00,
2013-04-07 09:16:00,43.8,26.9,30.22,West,275,9.2,9.2,51,0.00,OVC,,0.00,WeatherDisplay:10.37,2013-04-07 13:16:00,
2013-04-07 09:21:00,44.2,27.2,30.22,South,185,12.7,12.7,51,0.00,OVC,,0.00,WeatherDisplay:10.37,2013-04-07 13:21:00,
2013-04-07 09:26:00,44.6,27.1,30.22,West,277,5.8,5.8,50,0.00,OVC,,0.00,WeatherDisplay:10.37,2013-04-07 13:26:00,
2013-04-07 09:31:00,45.2,26.7,30.22,SSW,196,7.6,7.6,48,0.00,OVC,,0.00,WeatherDisplay:10.37,2013-04-07 13:31:00,
2013-04-07 09:36:00,45.7,26.6,30.21,SSW,210,3.5,3.5,47,0.00,OVC,,0.00,WeatherDisplay:10.37,2013-04-07 13:36:00,
2013-04-07 09:41:00,46.1,26.0,30.21,SSW,196,5.8,5.8,45,0.00,OVC,,0.00,WeatherDisplay:10.37,2013-04-07 13:41:00,
2013-04-07 09:47:00,46.1,25.4,30.20,SSE,157,5.8,5.8,44,0.00,OVC,,0.00,WeatherDisplay:10.37,2013-04-07 13:47:00,
2013-04-07 09:52:00,46.3,25.6,30.20,South,184,9.2,9.2,44,0.00,OVC,,0.00,WeatherDisplay:10.37,2013-04-07 13:52:00,
2013-04-07 09:57:00,46.9,25.0,30.20,SSE,152,8.1,8.1,42,0.00,OVC,,0.00,WeatherDisplay:10.37,2013-04-07 13:57:00,
2013-04-07 10:02:00,47.1,25.2,30.19,ESE,120,12.7,12.7,42,0.00,OVC,,0.00,WeatherDisplay:10.37,2013-04-07 14:02:00,
2013-04-07 10:07:00,47.5,25.0,30.19,SSE,152,9.2,9.2,41,0.00,OVC,,0.00,WeatherDisplay:10.37,2013-04-07 14:07:00,
2013-04-07 10:12:00,47.7,26.9,30.19,SW,220,9.2,9.2,44,0.00,OVC,,0.00,WeatherDisplay:10.37,2013-04-07 14:12:00,
2013-04-07 10:17:00,48.2,26.8,30.19,South,176,11.5,11.5,43,0.00,OVC,,0.00,WeatherDisplay:10.37,2013-04-07 14:17:00,
2013-04-07 10:24:00,48.4,27.5,30.19,South,181,6.9,6.9,44,0.00,OVC,,0.00,WeatherDisplay:10.37,2013-04-07 14:24:00,
2013-04-07 10:29:00,48.2,27.3,30.19,South,184,5.8,5.9,44,0.00,OVC,,0.00,WeatherDisplay:10.37,2013-04-07 14:29:00,
2013-04-07 10:36:00,49.1,27.0,30.19,East,82,8.1,8.1,42,0.00,OVC,,0.00,WeatherDisplay:10.37,2013-04-07 14:36:00,
2013-04-07 10:41:00,50.0,27.2,30.19,West,272,4.6,4.6,41,0.00,OVC,,0.00,WeatherDisplay:10.37,2013-04-07 14:41:00,
2013-04-07 10:46:00,50.6,26.6,30.19,SE,134,9.2,9.2,39,0.00,OVC,,0.00,WeatherDisplay:10.37,2013-04-07 14:46:00,
2013-04-07 10:52:00,51.2,26.5,30.18,West,271,8.1,8.1,38,0.00,OVC,,0.00,WeatherDisplay:10.37,2013-04-07 14:52:00,
2013-04-07 10:57:00,51.3,27.8,30.18,SE,124,11.5,11.5,40,0.00,OVC,,0.00,WeatherDisplay:10.37,2013-04-07 14:57:00,
2013-04-07 11:02:00,51.3,27.8,30.18,WSW,248,13.8,13.8,40,0.00,BKN,,0.00,WeatherDisplay:10.37,2013-04-07 15:02:00,
2013-04-07 11:07:00,51.6,27.5,30.18,SSW,210,13.8,13.8,39,0.00,BKN,,0.00,WeatherDisplay:10.37,2013-04-07 15:07:00,
2013-04-07 11:12:00,51.2,27.7,30.18,SSE,148,9.2,9.2,40,0.00,BKN,,0.00,WeatherDisplay:10.37,2013-04-07 15:12:00,
2013-04-07 11:17:00,51.2,27.7,30.17,East,99,10.4,10.4,40,0.00,BKN,,0.00,WeatherDisplay:10.37,2013-04-07 15:17:00,
2013-04-07 11:23:00,51.7,28.2,30.17,SE,131,13.8,13.8,40,0.00,BKN,,0.00,WeatherDisplay:10.37,2013-04-07 15:23:00,
2013-04-07 11:28:00,50.5,27.7,30.17,SSW,195,18.4,18.4,41,0.00,BKN,,0.00,WeatherDisplay:10.37,2013-04-07 15:28:00,
2013-04-07 11:35:00,50.3,28.7,30.17,SW,229,10.9,10.9,43,0.00,BKN,,0.00,WeatherDisplay:10.37,2013-04-07 15:35:00,
2013-04-07 11:41:00,50.7,29.6,30.16,South,175,13.8,13.8,44,0.00,BKN,,0.00,WeatherDisplay:10.37,2013-04-07 15:41:00,
2013-04-07 11:46:00,50.8,30.2,30.15,SSE,161,10.4,10.4,45,0.00,BKN,,0.00,WeatherDisplay:10.37,2013-04-07 15:46:00,
2013-04-07 11:51:00,51.3,29.0,30.15,SE,126,13.8,13.8,42,0.00,BKN,,0.00,WeatherDisplay:10.37,2013-04-07 15:51:00,
2013-04-07 11:56:00,51.6,30.4,30.15,SE,137,18.4,18.4,44,0.00,BKN,,0.00,WeatherDisplay:10.37,2013-04-07 15:56:00,
2013-04-07 12:01:00,51.7,29.4,30.14,South,169,15.0,15.0,42,0.00,BKN,,0.00,WeatherDisplay:10.37,2013-04-07 16:01:00,
2013-04-07 12:06:00,51.6,29.8,30.14,South,171,16.1,16.1,43,0.00,BKN,,0.00,WeatherDisplay:10.37,2013-04-07 16:06:00,
2013-04-07 12:12:00,52.3,29.9,30.13,SSE,160,11.5,11.5,42,0.00,BKN,,0.00,WeatherDisplay:10.37,2013-04-07 16:12:00,
2013-04-07 12:17:00,52.5,30.7,30.13,South,189,11.5,11.5,43,0.00,BKN,,0.00,WeatherDisplay:10.37,2013-04-07 16:17:00,
2013-04-07 12:23:00,52.9,31.6,30.12,SSE,152,17.3,17.3,44,0.00,BKN,,0.00,WeatherDisplay:10.37,2013-04-07 16:23:00,
2013-04-07 12:29:00,53.1,30.6,30.12,SSE,151,19.6,19.6,42,0.00,BKN,,0.00,WeatherDisplay:10.37,2013-04-07 16:29:00,
2013-04-07 12:34:00,53.6,31.7,30.11,SSW,193,11.5,11.5,43,0.00,BKN,,0.00,WeatherDisplay:10.37,2013-04-07 16:34:00,
2013-04-07 12:39:00,53.2,31.3,30.11,South,178,20.7,20.7,43,0.00,BKN,,0.00,WeatherDisplay:10.37,2013-04-07 16:39:00,
2013-04-07 12:45:00,52.8,31.5,30.11,WSW,248,13.8,13.8,44,0.00,BKN,,0.00,WeatherDisplay:10.37,2013-04-07 16:45:00,
2013-04-07 12:50:00,53.1,32.3,30.11,SSE,158,15.0,15.0,45,0.00,BKN,,0.00,WeatherDisplay:10.37,2013-04-07 16:50:00,
2013-04-07 12:55:00,53.3,32.5,30.10,SE,144,9.2,9.2,45,0.00,BKN,,0.00,WeatherDisplay:10.37,2013-04-07 16:55:00,
2013-04-07 13:01:00,53.8,31.8,30.10,SSE,152,11.5,11.5,43,0.00,BKN,,0.00,WeatherDisplay:10.37,2013-04-07 17:01:00,
2013-04-07 13:06:00,53.4,33.2,30.09,South,181,13.8,13.8,46,0.00,CLR,,0.00,WeatherDisplay:10.37,2013-04-07 17:06:00,
2013-04-07 13:11:00,53.5,33.2,30.09,South,178,16.1,16.1,46,0.00,CLR,,0.00,WeatherDisplay:10.37,2013-04-07 17:11:00,
2013-04-07 13:16:00,53.3,32.5,30.09,SSE,168,16.1,16.1,45,0.00,CLR,,0.00,WeatherDisplay:10.37,2013-04-07 17:16:00,
2013-04-07 13:21:00,53.4,33.7,30.08,South,175,15.0,15.0,47,0.00,CLR,,0.00,WeatherDisplay:10.37,2013-04-07 17:21:00,
2013-04-07 13:27:00,53.4,32.6,30.08,SSW,193,15.0,15.0,45,0.00,CLR,,0.00,WeatherDisplay:10.37,2013-04-07 17:27:00,
2013-04-07 13:32:00,53.8,33.0,30.08,SE,136,18.4,18.4,45,0.00,CLR,,0.00,WeatherDisplay:10.37,2013-04-07 17:32:00,
2013-04-07 13:37:00,53.3,32.5,30.08,SSE,162,15.0,15.0,45,0.00,CLR,,0.00,WeatherDisplay:10.37,2013-04-07 17:37:00,
2013-04-07 13:42:00,53.3,33.1,30.08,SSW,193,12.7,12.7,46,0.00,CLR,,0.00,WeatherDisplay:10.37,2013-04-07 17:42:00,
2013-04-07 13:48:00,53.6,33.3,30.07,SW,220,18.4,18.4,46,0.00,CLR,,0.00,WeatherDisplay:10.37,2013-04-07 17:48:00,
2013-04-07 13:53:00,54.0,33.2,30.07,South,189,18.4,18.4,45,0.00,CLR,,0.00,WeatherDisplay:10.37,2013-04-07 17:53:00,
2013-04-07 13:59:00,54.0,33.7,30.07,South,185,10.6,10.6,46,0.00,CLR,,0.00,WeatherDisplay:10.37,2013-04-07 17:59:00,
2013-04-07 14:04:00,53.9,31.9,30.06,SE,126,17.3,17.3,43,0.00,CLR,,0.00,WeatherDisplay:10.37,2013-04-07 18:04:00,
2013-04-07 14:09:00,54.3,32.9,30.06,SSE,154,15.0,15.0,44,0.00,CLR,,0.00,WeatherDisplay:10.37,2013-04-07 18:09:00,
2013-04-07 14:14:00,54.3,32.3,30.06,South,171,13.8,13.8,43,0.00,CLR,,0.00,WeatherDisplay:10.37,2013-04-07 18:14:00,
2013-04-07 14:20:00,53.8,31.8,30.05,SW,217,12.7,12.7,43,0.00,CLR,,0.00,WeatherDisplay:10.37,2013-04-07 18:20:00,
2013-04-07 14:26:00,54.2,33.9,30.05,SE,131,18.4,18.4,46,0.00,CLR,,0.00,WeatherDisplay:10.37,2013-04-07 18:26:00,
2013-04-07 14:31:00,54.2,33.3,30.04,SSE,154,17.3,17.3,45,0.00,CLR,,0.00,WeatherDisplay:10.37,2013-04-07 18:31:00,
2013-04-07 14:36:00,54.0,33.7,30.04,South,186,18.4,18.4,46,0.00,CLR,,0.00,WeatherDisplay:10.37,2013-04-07 18:36:00,
2013-04-07 14:43:00,53.7,34.5,30.04,SSE,167,17.3,17.3,48,0.00,CLR,,0.00,WeatherDisplay:10.37,2013-04-07 18:43:00,
2013-04-07 14:48:00,53.6,34.4,30.04,SE,134,17.3,17.3,48,0.00,CLR,,0.00,WeatherDisplay:10.37,2013-04-07 18:48:00,
2013-04-07 14:53:00,53.5,34.8,30.04,South,189,19.6,19.6,49,0.00,CLR,,0.00,WeatherDisplay:10.37,2013-04-07 18:53:00,
2013-04-07 14:58:00,53.4,34.7,30.03,South,172,11.5,11.5,49,0.00,CLR,,0.00,WeatherDisplay:10.37,2013-04-07 18:58:00,
2013-04-07 15:05:00,53.5,35.8,30.03,South,186,16.1,16.1,51,0.00,CLR,,0.00,WeatherDisplay:10.37,2013-04-07 19:05:00,
2013-04-07 15:10:00,53.4,35.7,30.03,SSE,154,17.3,17.3,51,0.00,CLR,,0.00,WeatherDisplay:10.37,2013-04-07 19:10:00,
2013-04-07 15:15:00,53.2,35.6,30.02,SSE,157,10.4,10.4,51,0.00,CLR,,0.00,WeatherDisplay:10.37,2013-04-07 19:15:00,
2013-04-07 15:21:00,52.9,35.8,30.02,SSE,160,17.3,17.3,52,0.00,CLR,,0.00,WeatherDisplay:10.37,2013-04-07 19:21:00,
2013-04-07 15:26:00,52.9,35.3,30.02,SSE,168,14.3,14.3,51,0.00,CLR,,0.00,WeatherDisplay:10.37,2013-04-07 19:26:00,
2013-04-07 15:31:00,52.7,35.6,30.02,SSE,161,16.1,16.1,52,0.00,CLR,,0.00,WeatherDisplay:10.37,2013-04-07 19:31:00,
2013-04-07 15:36:00,52.7,35.6,30.01,South,188,9.2,9.2,52,0.00,CLR,,0.00,WeatherDisplay:10.37,2013-04-07 19:36:00,
2013-04-07 15:41:00,53.1,36.0,30.01,SE,127,13.8,13.8,52,0.00,CLR,,0.00,WeatherDisplay:10.37,2013-04-07 19:41:00,
2013-04-07 15:46:00,53.5,36.3,30.01,ESE,123,18.4,18.4,52,0.00,CLR,,0.00,WeatherDisplay:10.37,2013-04-07 19:46:00,
2013-04-07 15:51:00,53.3,36.1,30.00,South,185,15.0,15.0,52,0.00,CLR,,0.00,WeatherDisplay:10.37,2013-04-07 19:51:00,
2013-04-07 15:56:00,53.2,36.1,30.00,SSW,198,15.0,15.0,52,0.00,CLR,,0.00,WeatherDisplay:10.37,2013-04-07 19:56:00,
2013-04-07 16:01:00,53.1,36.4,29.99,South,169,18.4,18.4,53,0.00,CLR,,0.00,WeatherDisplay:10.37,2013-04-07 20:01:00,
2013-04-07 16:06:00,53.3,36.1,29.97,SSW,200,11.5,11.5,52,0.00,CLR,,0.00,WeatherDisplay:10.37,2013-04-07 20:06:00,
2013-04-07 16:11:00,53.4,36.2,29.96,SSE,157,19.6,19.6,52,0.00,CLR,,0.00,WeatherDisplay:10.37,2013-04-07 20:11:00,
2013-04-07 16:16:00,53.6,36.9,29.95,SSW,195,18.7,18.7,53,0.00,CLR,,0.00,WeatherDisplay:10.37,2013-04-07 20:16:00,
2013-04-07 16:21:00,53.6,37.4,29.97,SSE,161,4.6,5.7,54,0.00,CLR,,0.00,WeatherDisplay:10.37,2013-04-07 20:21:00,
2013-04-07 16:26:00,54.1,36.9,29.99,WSW,237,9.2,9.2,52,0.00,CLR,,0.00,WeatherDisplay:10.37,2013-04-07 20:26:00,
2013-04-07 16:31:00,54.5,36.8,30.00,SE,137,11.5,11.5,51,0.00,CLR,,0.00,WeatherDisplay:10.37,2013-04-07 20:31:00,
2013-04-07 16:37:00,54.3,37.1,30.00,South,174,11.5,11.5,52,0.00,CLR,,0.00,WeatherDisplay:10.37,2013-04-07 20:37:00,
2013-04-07 16:42:00,53.9,37.2,30.00,South,172,17.3,17.3,53,0.00,CLR,,0.00,WeatherDisplay:10.37,2013-04-07 20:42:00,
2013-04-07 16:47:00,53.3,37.6,30.00,SE,130,6.9,6.9,55,0.00,CLR,,0.00,WeatherDisplay:10.37,2013-04-07 20:47:00,
2013-04-07 16:52:00,53.3,37.6,30.00,South,171,3.6,3.6,55,0.00,CLR,,0.00,WeatherDisplay:10.37,2013-04-07 20:52:00,
2013-04-07 16:58:00,53.4,37.7,29.99,SSE,154,10.4,10.4,55,0.00,CLR,,0.00,WeatherDisplay:10.37,2013-04-07 20:58:00,
2013-04-07 17:03:00,53.1,38.3,29.98,South,178,16.1,16.1,57,0.00,CLR,,0.00,WeatherDisplay:10.37,2013-04-07 21:03:00,
2013-04-07 17:08:00,53.2,38.8,29.98,SSW,193,11.5,11.5,58,0.00,CLR,,0.00,WeatherDisplay:10.37,2013-04-07 21:08:00,
2013-04-07 17:14:00,53.1,38.7,29.97,SSE,167,8.1,8.1,58,0.00,CLR,,0.00,WeatherDisplay:10.37,2013-04-07 21:14:00,
2013-04-07 17:19:00,52.8,38.5,29.97,South,179,12.7,12.7,58,0.00,CLR,,0.00,WeatherDisplay:10.37,2013-04-07 21:19:00,
2013-04-07 17:24:00,52.5,38.6,29.97,NE,55,9.2,9.2,59,0.00,CLR,,0.00,WeatherDisplay:10.37,2013-04-07 21:24:00,
2013-04-07 17:30:00,52.3,38.9,29.96,WSW,254,5.8,5.8,60,0.00,CLR,,0.00,WeatherDisplay:10.37,2013-04-07 21:30:00,
2013-04-07 17:35:00,51.9,38.9,29.99,WSW,246,10.4,10.4,61,0.00,CLR,,0.00,WeatherDisplay:10.37,2013-04-07 21:35:00,
2013-04-07 17:40:00,51.6,38.6,29.99,SE,128,16.1,16.1,61,0.00,CLR,,0.00,WeatherDisplay:10.37,2013-04-07 21:40:00,
2013-04-07 17:46:00,51.3,38.8,29.99,SE,134,11.5,11.5,62,0.00,CLR,,0.00,WeatherDisplay:10.37,2013-04-07 21:46:00,
2013-04-07 17:52:00,51.1,39.0,29.99,SE,138,9.2,9.2,63,0.00,CLR,,0.00,WeatherDisplay:10.37,2013-04-07 21:52:00,
2013-04-07 17:58:00,50.8,38.7,30.00,South,185,9.2,9.2,63,0.00,CLR,,0.00,WeatherDisplay:10.37,2013-04-07 21:58:00,
2013-04-07 18:03:00,50.7,39.0,29.99,South,175,10.4,10.4,64,0.00,CLR,,0.00,WeatherDisplay:10.37,2013-04-07 22:03:00,
2013-04-07 18:10:00,50.7,39.4,29.98,SSE,168,10.4,10.4,65,0.00,CLR,,0.00,WeatherDisplay:10.37,2013-04-07 22:10:00,
2013-04-07 18:15:00,50.6,40.1,29.99,SSE,155,13.8,13.8,67,0.00,CLR,,0.00,WeatherDisplay:10.37,2013-04-07 22:15:00,
2013-04-07 18:20:00,50.4,40.3,29.99,South,178,12.7,12.7,68,0.00,CLR,,0.00,WeatherDisplay:10.37,2013-04-07 22:20:00,
2013-04-07 18:25:00,50.4,40.6,29.98,SSW,202,12.7,12.7,69,0.00,CLR,,0.00,WeatherDisplay:10.37,2013-04-07 22:25:00,
2013-04-07 18:30:00,50.2,40.8,29.99,SE,141,12.7,12.7,70,0.00,CLR,,0.00,WeatherDisplay:10.37,2013-04-07 22:30:00,
2013-04-07 18:36:00,50.0,40.6,29.99,South,188,11.5,11.5,70,0.00,CLR,,0.00,WeatherDisplay:10.37,2013-04-07 22:36:00,
2013-04-07 18:41:00,50.1,41.1,29.99,SSE,167,6.9,6.9,71,0.00,CLR,,0.00,WeatherDisplay:10.37,2013-04-07 22:41:00,
2013-04-07 18:46:00,50.2,41.2,29.99,South,179,5.2,5.2,71,0.00,CLR,,0.00,WeatherDisplay:10.37,2013-04-07 22:46:00,
2013-04-07 18:52:00,50.0,41.0,29.99,SSE,154,5.8,5.8,71,0.00,CLR,,0.00,WeatherDisplay:10.37,2013-04-07 22:52:00,
2013-04-07 18:57:00,50.1,41.1,29.99,West,260,10.4,10.4,71,0.00,CLR,,0.00,WeatherDisplay:10.37,2013-04-07 22:57:00,
2013-04-07 19:02:00,50.1,41.1,30.00,WSW,239,12.7,12.7,71,0.00,CLR,,0.00,WeatherDisplay:10.37,2013-04-07 23:02:00,
2013-04-07 19:07:00,49.8,41.2,30.00,SSW,196,5.8,5.8,72,0.00,-RA,,0.00,WeatherDisplay:10.37,2013-04-07 23:07:00,
2013-04-07 19:13:00,49.8,41.2,30.00,South,191,10.4,10.4,72,0.00,-RA,,0.00,WeatherDisplay:10.37,2013-04-07 23:13:00,
2013-04-07 19:19:00,49.5,41.2,30.00,SE,127,2.3,2.3,73,0.00,-RA,,0.00,WeatherDisplay:10.37,2013-04-07 23:19:00,
2013-04-07 19:24:00,49.5,41.6,30.00,SSE,160,4.6,4.6,74,0.00,-RA,,0.00,WeatherDisplay:10.37,2013-04-07 23:24:00,
2013-04-07 19:30:00,49.3,41.4,30.00,SSE,165,3.5,3.5,74,0.00,-RA,,0.00,WeatherDisplay:10.37,2013-04-07 23:30:00,
2013-04-07 19:35:00,48.9,41.0,30.00,SE,131,6.9,6.9,74,0.00,-RA,,0.00,WeatherDisplay:10.37,2013-04-07 23:35:00,
2013-04-07 19:40:00,48.9,41.4,30.00,ENE,66,2.3,2.3,75,0.00,-RA,,0.00,WeatherDisplay:10.37,2013-04-07 23:40:00,
2013-04-07 19:45:00,48.6,41.4,30.00,South,188,5.8,5.8,76,0.00,-RA,,0.00,WeatherDisplay:10.37,2013-04-07 23:45:00,
2013-04-07 19:50:00,48.5,41.7,30.00,South,178,6.9,6.9,77,0.00,-RA,,0.00,WeatherDisplay:10.37,2013-04-07 23:50:00,
2013-04-07 19:55:00,48.3,41.8,30.00,SSE,162,6.9,6.9,78,0.00,-RA,,0.00,WeatherDisplay:10.37,2013-04-07 23:55:00,
2013-04-07 20:01:00,48.1,41.9,30.01,SW,229,11.5,11.5,79,0.00,-RA,,0.00,WeatherDisplay:10.37,2013-04-08 00:01:00,
2013-04-07 20:06:00,48.1,41.6,30.01,South,175,0.0,0.0,78,0.00,CLR,,0.00,WeatherDisplay:10.37,2013-04-08 00:06:00,
2013-04-07 20:11:00,48.1,41.9,30.01,SSW,196,4.6,4.6,79,0.00,CLR,,0.00,WeatherDisplay:10.37,2013-04-08 00:11:00,
2013-04-07 20:16:00,47.8,41.3,30.01,South,191,3.5,3.5,78,0.00,CLR,,0.00,WeatherDisplay:10.37,2013-04-08 00:16:00,
2013-04-07 20:21:00,47.6,41.8,30.01,SSW,199,6.9,6.9,80,0.00,CLR,,0.00,WeatherDisplay:10.37,2013-04-08 00:21:00,
2013-04-07 20:26:00,47.6,41.8,30.01,WSW,237,8.1,8.1,80,0.00,CLR,,0.00,WeatherDisplay:10.37,2013-04-08 00:26:00,
2013-04-07 20:31:00,47.3,41.8,30.01,South,175,6.9,6.9,81,0.00,CLR,,0.00,WeatherDisplay:10.37,2013-04-08 00:31:00,
2013-04-07 20:36:00,47.2,42.0,30.01,South,176,9.2,9.2,82,0.00,CLR,,0.00,WeatherDisplay:10.37,2013-04-08 00:36:00,
2013-04-07 20:41:00,47.2,42.0,30.01,South,174,6.9,6.9,82,0.00,CLR,,0.00,WeatherDisplay:10.37,2013-04-08 00:41:00,
2013-04-07 20:46:00,47.2,42.0,30.01,SSW,208,4.6,4.6,82,0.00,CLR,,0.00,WeatherDisplay:10.37,2013-04-08 00:46:00,
2013-04-07 20:51:00,47.2,42.0,30.02,NE,56,0.0,0.0,82,0.00,CLR,,0.00,WeatherDisplay:10.37,2013-04-08 00:51:00,
2013-04-07 20:56:00,47.1,41.9,30.01,SE,126,2.3,2.3,82,0.00,CLR,,0.00,WeatherDisplay:10.37,2013-04-08 00:56:00,
2013-04-07 21:01:00,46.9,41.7,30.02,SE,126,0.0,0.0,82,0.00,CLR,,0.00,WeatherDisplay:10.37,2013-04-08 01:01:00,
2013-04-07 21:08:00,46.7,41.8,30.01,SE,143,3.7,3.7,83,0.00,CLR,,0.00,WeatherDisplay:10.37,2013-04-08 01:08:00,
2013-04-07 21:13:00,46.5,42.0,30.02,SE,140,2.3,2.3,84,0.00,CLR,,0.00,WeatherDisplay:10.37,2013-04-08 01:13:00,
2013-04-07 21:18:00,46.3,41.8,30.02,ENE,75,2.3,2.3,84,0.00,CLR,,0.00,WeatherDisplay:10.37,2013-04-08 01:18:00,
2013-04-07 21:23:00,46.3,41.8,30.02,NE,48,2.3,2.3,84,0.00,CLR,,0.00,WeatherDisplay:10.37,2013-04-08 01:23:00,
2013-04-07 21:28:00,46.2,41.7,30.02,NE,48,0.0,0.0,84,0.00,CLR,,0.00,WeatherDisplay:10.37,2013-04-08 01:28:00,
2013-04-07 21:33:00,46.3,41.8,30.02,NE,49,1.2,0.0,84,0.00,CLR,,0.00,WeatherDisplay:10.37,2013-04-08 01:33:00,
2013-04-07 21:39:00,46.2,42.0,30.01,NE,49,0.0,0.0,85,0.00,CLR,,0.00,WeatherDisplay:10.37,2013-04-08 01:39:00,
2013-04-07 21:44:00,46.2,42.0,30.01,NE,49,0.0,0.0,85,0.00,CLR,,0.00,WeatherDisplay:10.37,2013-04-08 01:44:00,
2013-04-07 21:50:00,46.1,41.9,30.02,NE,49,0.0,0.0,85,0.00,CLR,,0.00,WeatherDisplay:10.37,2013-04-08 01:50:00,
2013-04-07 21:56:00,45.8,41.6,30.02,NE,49,0.0,0.0,85,0.00,CLR,,0.00,WeatherDisplay:10.37,2013-04-08 01:56:00,
2013-04-07 22:02:00,45.8,41.9,30.02,NE,49,0.0,0.0,86,0.00,CLR,,0.00,WeatherDisplay:10.37,2013-04-08 02:02:00,
2013-04-07 22:07:00,45.8,41.9,30.01,NE,49,0.0,0.0,86,0.00,CLR,,0.00,WeatherDisplay:10.37,2013-04-08 02:07:00,
2013-04-07 22:12:00,45.7,41.8,30.01,NE,49,0.0,0.0,86,0.00,CLR,,0.00,WeatherDisplay:10.37,2013-04-08 02:12:00,
2013-04-07 22:18:00,45.5,41.6,30.01,NE,49,0.0,0.0,86,0.00,CLR,,0.00,WeatherDisplay:10.37,2013-04-08 02:18:00,
2013-04-07 22:23:00,45.3,41.4,30.01,NE,49,0.0,0.0,86,0.00,CLR,,0.00,WeatherDisplay:10.37,2013-04-08 02:23:00,
2013-04-07 22:28:00,45.4,41.8,30.01,NE,49,0.0,0.0,87,0.00,CLR,,0.00,WeatherDisplay:10.37,2013-04-08 02:28:00,
2013-04-07 22:33:00,45.2,41.6,30.00,NE,49,0.0,0.0,87,0.00,CLR,,0.00,WeatherDisplay:10.37,2013-04-08 02:33:00,
2013-04-07 22:38:00,45.2,41.6,30.00,NE,49,0.0,0.0,87,0.00,CLR,,0.00,WeatherDisplay:10.37,2013-04-08 02:38:00,
2013-04-07 22:43:00,45.1,41.8,30.00,NE,49,0.0,0.0,88,0.00,CLR,,0.00,WeatherDisplay:10.37,2013-04-08 02:43:00,
2013-04-07 22:48:00,45.2,41.9,30.00,NE,49,0.0,0.0,88,0.00,CLR,,0.00,WeatherDisplay:10.37,2013-04-08 02:48:00,
2013-04-07 22:54:00,45.2,41.9,30.00,NE,49,0.0,0.0,88,0.00,CLR,,0.00,WeatherDisplay:10.37,2013-04-08 02:54:00,
2013-04-07 23:00:00,44.9,41.9,30.00,NE,49,0.0,0.0,89,0.00,CLR,,0.00,WeatherDisplay:10.37,2013-04-08 03:00:00,
2013-04-07 23:07:00,45.5,42.5,30.00,NE,49,0.0,0.0,89,0.00,CLR,,0.00,WeatherDisplay:10.37,2013-04-08 03:07:00,
2013-04-07 23:12:00,45.4,42.1,30.00,NE,49,0.0,0.0,88,0.00,CLR,,0.00,WeatherDisplay:10.37,2013-04-08 03:12:00,
2013-04-07 23:17:00,45.1,41.8,30.00,NE,49,0.0,0.0,88,0.00,CLR,,0.00,WeatherDisplay:10.37,2013-04-08 03:17:00,
2013-04-07 23:23:00,45.2,41.9,30.00,NE,49,0.0,0.0,88,0.00,CLR,,0.00,WeatherDisplay:10.37,2013-04-08 03:23:00,
2013-04-07 23:28:00,45.0,42.0,30.00,NE,49,0.0,0.0,89,0.00,CLR,,0.00,WeatherDisplay:10.37,2013-04-08 03:28:00,
2013-04-07 23:35:00,45.0,42.3,30.00,NE,49,0.0,0.0,90,0.00,CLR,,0.00,WeatherDisplay:10.37,2013-04-08 03:35:00,
2013-04-07 23:40:00,45.1,42.4,30.00,NE,49,0.0,0.0,90,0.00,CLR,,0.00,WeatherDisplay:10.37,2013-04-08 03:40:00,
2013-04-07 23:45:00,44.8,41.8,30.00,NE,49,0.0,0.0,89,0.00,CLR,,0.00,WeatherDisplay:10.37,2013-04-08 03:45:00,
2013-04-07 23:51:00,45.2,42.5,30.00,NE,49,0.0,0.0,90,0.00,CLR,,0.00,WeatherDisplay:10.37,2013-04-08 03:51:00,
2013-04-07 23:57:00,44.9,41.9,30.00,NE,49,0.0,0.0,89,0.00,CLR,,0.00,WeatherDisplay:10.37,2013-04-08 03:57:00,